createdAt,value
2017-12-14T00:00:17.132Z,0
2017-12-14T00:01:26.569Z,0
2017-12-14T00:02:36.247Z,0
2017-12-14T00:03:46.198Z,0
2017-12-14T00:04:55.878Z,0
2017-12-14T00:06:05.569Z,0
2017-12-14T00:07:15.513Z,0
2017-12-14T00:08:25.466Z,0
2017-12-14T00:09:34.888Z,0
2017-12-14T00:10:45.178Z,0
2017-12-14T00:11:55.122Z,0
2017-12-14T00:13:04.552Z,0
2017-12-14T00:14:14.518Z,0
2017-12-14T00:15:23.953Z,0
2017-12-14T00:16:33.888Z,0
2017-12-14T00:17:43.061Z,0
2017-12-14T00:18:52.768Z,0
2017-12-14T00:20:02.711Z,0
2017-12-14T00:21:12.654Z,0
2017-12-14T00:22:22.337Z,0
2017-12-14T00:23:32.286Z,0
2017-12-14T00:24:42.047Z,0
2017-12-14T00:25:51.749Z,0
2017-12-14T00:27:01.439Z,0
2017-12-14T00:28:11.387Z,0
2017-12-14T00:29:20.820Z,0
2017-12-14T00:30:31.071Z,0
2017-12-14T00:31:40.502Z,0
2017-12-14T00:32:50.205Z,0
2017-12-14T00:33:59.887Z,0
2017-12-14T00:35:09.844Z,0
2017-12-14T00:36:19.272Z,0
2017-12-14T00:37:29.214Z,0
2017-12-14T00:38:38.637Z,0
2017-12-14T00:39:48.050Z,0
2017-12-14T00:40:57.989Z,0
2017-12-14T00:42:07.945Z,0
2017-12-14T00:43:17.898Z,0
2017-12-14T00:44:27.592Z,0
2017-12-14T00:45:37.306Z,0
2017-12-14T00:46:47.268Z,0
2017-12-14T00:47:57.219Z,0
2017-12-14T00:49:07.156Z,0
2017-12-14T00:50:17.098Z,0
2017-12-14T00:51:26.789Z,0
2017-12-14T00:52:36.485Z,0
2017-12-14T00:53:46.422Z,0
2017-12-14T00:54:56.096Z,0
2017-12-14T00:56:06.046Z,0
2017-12-14T00:57:15.477Z,0
2017-12-14T00:58:24.914Z,0
2017-12-14T00:59:34.872Z,0
2017-12-14T01:00:44.563Z,0
2017-12-14T01:01:54.247Z,0
2017-12-14T01:03:03.943Z,0
2017-12-14T01:04:13.634Z,0
2017-12-14T01:05:23.071Z,0
2017-12-14T01:06:33.012Z,0
2017-12-14T01:07:43.219Z,0
2017-12-14T01:08:52.916Z,0
2017-12-14T01:10:02.889Z,0
2017-12-14T01:11:12.632Z,0
2017-12-14T01:12:22.574Z,0
2017-12-14T01:13:32.509Z,0
2017-12-14T01:14:42.465Z,0
2017-12-14T01:15:52.155Z,0
2017-12-14T01:17:02.110Z,0
2017-12-14T01:18:12.045Z,0
2017-12-14T01:19:21.734Z,0
2017-12-14T01:20:31.684Z,0
2017-12-14T01:21:41.620Z,0
2017-12-14T01:22:51.307Z,0
2017-12-14T01:24:01.273Z,0
2017-12-14T01:25:11.213Z,0
2017-12-14T01:26:21.155Z,0
2017-12-14T01:27:30.849Z,0
2017-12-14T01:28:40.290Z,0
2017-12-14T01:29:50.227Z,0
2017-12-14T01:30:59.656Z,0
2017-12-14T01:32:09.609Z,0
2017-12-14T01:33:19.039Z,0
2017-12-14T01:34:28.980Z,0
2017-12-14T01:35:38.919Z,0
2017-12-14T01:36:48.873Z,0
2017-12-14T01:37:58.294Z,0
2017-12-14T01:39:07.723Z,0
2017-12-14T01:40:17.401Z,0
2017-12-14T01:41:27.338Z,0
2017-12-14T01:42:36.755Z,0
2017-12-14T01:43:46.687Z,0
2017-12-14T01:44:56.115Z,0
2017-12-14T01:46:06.062Z,0
2017-12-14T01:47:15.754Z,0
2017-12-14T01:48:25.711Z,0
2017-12-14T01:49:35.649Z,0
2017-12-14T01:50:45.591Z,0
2017-12-14T01:51:55.545Z,0
2017-12-14T01:53:05.224Z,0
2017-12-14T01:54:15.156Z,0
2017-12-14T01:55:24.828Z,0
2017-12-14T01:56:34.763Z,0
2017-12-14T01:57:44.444Z,0
2017-12-14T01:58:54.122Z,0
2017-12-14T02:00:03.831Z,0
2017-12-14T02:01:13.256Z,0
2017-12-14T02:02:22.955Z,0
2017-12-14T02:03:32.378Z,0
2017-12-14T02:04:41.546Z,0
2017-12-14T02:05:51.229Z,0
2017-12-14T02:07:01.174Z,0
2017-12-14T02:08:10.328Z,0
2017-12-14T02:09:19.499Z,0
2017-12-14T02:10:28.663Z,0
2017-12-14T02:11:38.346Z,0
2017-12-14T02:12:48.280Z,0
2017-12-14T02:13:57.958Z,0
2017-12-14T02:15:07.445Z,0
2017-12-14T02:16:16.866Z,0
2017-12-14T02:17:26.549Z,0
2017-12-14T02:18:36.240Z,0
2017-12-14T02:19:46.178Z,0
2017-12-14T02:20:55.090Z,0
2017-12-14T02:22:04.268Z,0
2017-12-14T02:23:14.283Z,0
2017-12-14T02:24:24.218Z,0
2017-12-14T02:25:34.169Z,0
2017-12-14T02:26:43.588Z,0
2017-12-14T02:27:53.530Z,0
2017-12-14T02:29:02.691Z,0
2017-12-14T02:30:12.142Z,0
2017-12-14T02:31:21.837Z,0
2017-12-14T02:32:31.592Z,0
2017-12-14T02:33:41.292Z,0
2017-12-14T02:34:51.329Z,0
2017-12-14T02:36:01.287Z,0
2017-12-14T02:37:11.247Z,0
2017-12-14T02:38:21.195Z,0
2017-12-14T02:39:31.396Z,0
2017-12-14T02:40:41.087Z,0
2017-12-14T02:41:50.773Z,0
2017-12-14T02:43:00.780Z,0
2017-12-14T02:44:10.731Z,0
2017-12-14T02:45:20.419Z,0
2017-12-14T02:46:29.848Z,0
2017-12-14T02:47:39.556Z,0
2017-12-14T02:48:48.985Z,0
2017-12-14T02:49:58.651Z,0
2017-12-14T02:51:08.091Z,0
2017-12-14T02:52:17.766Z,0
2017-12-14T02:53:27.728Z,0
2017-12-14T02:54:37.482Z,0
2017-12-14T02:55:46.914Z,0
2017-12-14T02:56:56.611Z,0
2017-12-14T02:58:06.298Z,0
2017-12-14T02:59:15.720Z,0
2017-12-14T03:00:25.434Z,0
2017-12-14T03:01:34.866Z,0
2017-12-14T03:02:44.831Z,0
2017-12-14T03:03:54.763Z,0
2017-12-14T03:05:04.444Z,0
2017-12-14T03:06:14.379Z,0
2017-12-14T03:07:24.320Z,0
2017-12-14T03:08:33.752Z,0
2017-12-14T03:09:43.683Z,0
2017-12-14T03:10:53.625Z,0
2017-12-14T03:12:03.577Z,0
2017-12-14T03:13:13.269Z,0
2017-12-14T03:14:22.441Z,0
2017-12-14T03:15:32.116Z,0
2017-12-14T03:16:41.800Z,0
2017-12-14T03:17:51.226Z,0
2017-12-14T03:19:01.175Z,0
2017-12-14T03:20:10.854Z,0
2017-12-14T03:21:21.051Z,0
2017-12-14T03:22:30.993Z,0
2017-12-14T03:23:40.933Z,0
2017-12-14T03:24:50.611Z,0
2017-12-14T03:26:00.295Z,0
2017-12-14T03:27:09.980Z,0
2017-12-14T03:28:19.411Z,0
2017-12-14T03:29:29.105Z,0
2017-12-14T03:30:38.790Z,0
2017-12-14T03:31:48.526Z,0
2017-12-14T03:32:58.222Z,0
2017-12-14T03:34:08.170Z,0
2017-12-14T03:35:18.118Z,0
2017-12-14T03:36:28.059Z,0
2017-12-14T03:37:37.477Z,0
2017-12-14T03:38:47.406Z,0
2017-12-14T03:39:57.363Z,0
2017-12-14T03:41:07.307Z,0
2017-12-14T03:42:16.994Z,0
2017-12-14T03:43:26.947Z,0
2017-12-14T03:44:36.890Z,0
2017-12-14T03:45:46.560Z,0
2017-12-14T03:46:55.982Z,0
2017-12-14T03:48:05.714Z,0
2017-12-14T03:49:15.149Z,0
2017-12-14T03:50:24.830Z,0
2017-12-14T03:51:34.271Z,0
2017-12-14T03:52:43.951Z,0
2017-12-14T03:53:53.888Z,0
2017-12-14T04:02:08.942Z,0
2017-12-14T04:03:18.633Z,0
2017-12-14T04:04:28.327Z,0
2017-12-14T04:05:38.020Z,0
2017-12-14T04:06:47.712Z,0
2017-12-14T04:07:57.408Z,0
2017-12-14T04:09:07.355Z,0
2017-12-14T04:10:17.052Z,0
2017-12-14T04:11:26.743Z,0
2017-12-14T04:12:36.688Z,0
2017-12-14T04:13:46.375Z,0
2017-12-14T04:14:56.307Z,0
2017-12-14T04:16:06.248Z,0
2017-12-14T04:17:15.680Z,0
2017-12-14T04:18:25.386Z,0
2017-12-14T04:19:35.332Z,0
2017-12-14T04:20:45.266Z,0
2017-12-14T04:21:55.224Z,0
2017-12-14T04:23:04.953Z,0
2017-12-14T04:24:14.667Z,0
2017-12-14T04:25:24.611Z,0
2017-12-14T04:26:34.556Z,0
2017-12-14T04:27:44.498Z,0
2017-12-14T04:28:54.585Z,0
2017-12-14T04:30:04.530Z,0
2017-12-14T04:31:14.468Z,0
2017-12-14T04:32:24.402Z,0
2017-12-14T04:33:33.833Z,0
2017-12-14T04:34:43.778Z,0
2017-12-14T04:35:53.968Z,0
2017-12-14T04:37:03.395Z,0
2017-12-14T04:38:13.094Z,0
2017-12-14T04:39:22.779Z,0
2017-12-14T04:40:32.216Z,0
2017-12-14T04:41:41.915Z,0
2017-12-14T04:42:51.347Z,0
2017-12-14T04:44:01.032Z,0
2017-12-14T04:45:10.462Z,0
2017-12-14T04:46:20.149Z,0
2017-12-14T04:47:29.574Z,0
2017-12-14T04:48:39.522Z,0
2017-12-14T04:49:49.215Z,0
2017-12-14T04:50:59.224Z,0
2017-12-14T04:52:08.680Z,0
2017-12-14T04:53:18.085Z,0
2017-12-14T04:54:27.796Z,0
2017-12-14T04:55:37.737Z,0
2017-12-14T04:56:47.424Z,0
2017-12-14T04:57:57.426Z,0
2017-12-14T04:59:07.122Z,0
2017-12-14T05:00:16.810Z,0
2017-12-14T05:01:26.751Z,0
2017-12-14T05:02:36.689Z,0
2017-12-14T05:03:46.632Z,0
2017-12-14T05:04:56.585Z,0
2017-12-14T05:06:06.002Z,0
2017-12-14T05:07:15.688Z,0
2017-12-14T05:08:25.406Z,0
2017-12-14T05:09:35.083Z,0
2017-12-14T05:10:44.766Z,0
2017-12-14T05:11:54.457Z,0
2017-12-14T05:13:04.141Z,0
2017-12-14T05:14:13.834Z,0
2017-12-14T05:15:23.265Z,0
2017-12-14T05:16:32.949Z,0
2017-12-14T05:17:42.377Z,0
2017-12-14T05:18:52.050Z,0
2017-12-14T05:20:01.988Z,0
2017-12-14T05:21:11.930Z,0
2017-12-14T05:22:21.621Z,0
2017-12-14T05:23:31.567Z,0
2017-12-14T05:24:40.742Z,0
2017-12-14T05:25:50.173Z,0
2017-12-14T05:27:00.152Z,0
2017-12-14T05:28:10.112Z,0
2017-12-14T05:29:19.829Z,0
2017-12-14T05:30:29.783Z,0
2017-12-14T05:31:39.740Z,0
2017-12-14T05:32:49.706Z,0
2017-12-14T05:33:59.654Z,0
2017-12-14T05:35:09.345Z,0
2017-12-14T05:36:19.282Z,0
2017-12-14T05:37:28.710Z,0
2017-12-14T05:38:37.879Z,0
2017-12-14T05:39:47.821Z,0
2017-12-14T05:40:57.556Z,0
2017-12-14T05:42:07.265Z,0
2017-12-14T05:43:16.702Z,0
2017-12-14T05:44:26.669Z,0
2017-12-14T05:45:36.630Z,0
2017-12-14T05:46:46.569Z,0
2017-12-14T05:47:56.257Z,0
2017-12-14T05:49:05.948Z,0
2017-12-14T05:50:15.637Z,0
2017-12-14T05:51:25.342Z,0
2017-12-14T05:52:35.262Z,0
2017-12-14T05:53:44.948Z,0
2017-12-14T05:54:54.641Z,0
2017-12-14T05:56:04.588Z,0
2017-12-14T05:57:14.524Z,0
2017-12-14T05:58:23.951Z,0
2017-12-14T05:59:33.917Z,0
2017-12-14T06:00:43.631Z,0
2017-12-14T06:01:53.579Z,0
2017-12-14T06:03:03.513Z,0
2017-12-14T06:04:12.943Z,0
2017-12-14T06:05:22.637Z,0
2017-12-14T06:06:32.341Z,0
2017-12-14T06:07:42.305Z,0
2017-12-14T06:08:52.326Z,0
2017-12-14T06:10:01.753Z,0
2017-12-14T06:11:11.694Z,0
2017-12-14T06:12:21.395Z,0
2017-12-14T06:13:30.834Z,0
2017-12-14T06:14:40.775Z,0
2017-12-14T06:15:50.481Z,0
2017-12-14T06:17:00.173Z,0
2017-12-14T06:18:09.597Z,0
2017-12-14T06:19:19.251Z,0
2017-12-14T06:20:29.193Z,0
2017-12-14T06:21:38.878Z,0
2017-12-14T06:22:48.831Z,0
2017-12-14T06:23:58.517Z,0
2017-12-14T06:25:08.204Z,0
2017-12-14T06:26:17.890Z,0
2017-12-14T06:27:27.845Z,0
2017-12-14T06:28:37.791Z,0
2017-12-14T06:29:47.744Z,0
2017-12-14T06:30:57.433Z,0
2017-12-14T06:32:07.139Z,0
2017-12-14T06:33:16.877Z,0
2017-12-14T06:34:26.551Z,0
2017-12-14T06:35:35.735Z,0
2017-12-14T06:36:45.690Z,0
2017-12-14T06:37:55.632Z,0
2017-12-14T06:39:05.571Z,0
2017-12-14T06:40:15.507Z,0
2017-12-14T06:41:25.458Z,0
2017-12-14T06:42:34.893Z,0
2017-12-14T06:43:44.847Z,0
2017-12-14T06:44:54.609Z,0
2017-12-14T06:46:04.540Z,0
2017-12-14T06:47:14.255Z,0
2017-12-14T06:48:23.425Z,0
2017-12-14T06:49:33.109Z,0
2017-12-14T06:50:42.952Z,0
2017-12-14T06:51:52.907Z,0
2017-12-14T06:53:02.600Z,0
2017-12-14T06:54:12.554Z,0
2017-12-14T06:55:22.250Z,0
2017-12-14T06:56:31.926Z,0
2017-12-14T06:57:42.020Z,0
2017-12-14T06:58:51.960Z,0
2017-12-14T07:00:01.916Z,0
2017-12-14T07:01:11.362Z,0
2017-12-14T07:02:21.038Z,5
2017-12-14T07:03:30.732Z,5
2017-12-14T07:04:40.709Z,5
2017-12-14T07:05:50.670Z,5
2017-12-14T07:07:00.623Z,5
2017-12-14T07:08:10.333Z,5
2017-12-14T07:09:20.300Z,5
2017-12-14T07:10:30.116Z,5
2017-12-14T07:11:40.079Z,10
2017-12-14T07:12:49.784Z,10
2017-12-14T07:13:59.480Z,10
2017-12-14T07:15:09.203Z,10
2017-12-14T07:16:18.916Z,10
2017-12-14T07:17:28.613Z,10
2017-12-14T07:18:38.625Z,10
2017-12-14T07:19:48.083Z,10
2017-12-14T07:20:57.789Z,10
2017-12-14T07:22:07.236Z,10
2017-12-14T07:23:17.183Z,10
2017-12-14T07:24:27.152Z,10
2017-12-14T07:25:37.110Z,15
2017-12-14T07:26:47.070Z,15
2017-12-14T07:27:56.771Z,15
2017-12-14T07:29:06.734Z,15
2017-12-14T07:30:16.440Z,15
2017-12-14T07:31:26.405Z,15
2017-12-14T07:32:36.357Z,15
2017-12-14T07:33:46.071Z,20
2017-12-14T07:34:55.535Z,20
2017-12-14T07:36:05.279Z,25
2017-12-14T07:37:14.976Z,25
2017-12-14T07:38:24.708Z,30
2017-12-14T07:39:34.686Z,30
2017-12-14T07:40:44.381Z,30
2017-12-14T07:41:54.089Z,35
2017-12-14T07:43:04.041Z,35
2017-12-14T07:44:13.243Z,40
2017-12-14T07:45:22.984Z,40
2017-12-14T07:46:32.941Z,40
2017-12-14T07:47:42.379Z,45
2017-12-14T07:48:52.087Z,45
2017-12-14T07:50:01.788Z,45
2017-12-14T07:51:11.744Z,50
2017-12-14T07:52:21.739Z,50
2017-12-14T07:53:31.708Z,50
2017-12-14T07:54:41.412Z,55
2017-12-14T07:55:51.156Z,55
2017-12-14T07:57:00.340Z,55
2017-12-14T07:58:10.526Z,55
2017-12-14T07:59:20.467Z,55
2017-12-14T08:00:30.182Z,55
2017-12-14T08:01:39.889Z,55
2017-12-14T08:02:49.840Z,55
2017-12-14T08:03:59.594Z,55
2017-12-14T08:05:09.040Z,55
2017-12-14T08:06:19.022Z,55
2017-12-14T08:07:29.005Z,60
2017-12-14T08:08:38.436Z,60
2017-12-14T08:09:48.152Z,60
2017-12-14T08:10:58.117Z,60
2017-12-14T08:12:08.119Z,60
2017-12-14T08:13:17.560Z,60
2017-12-14T08:14:27.545Z,60
2017-12-14T08:15:37.248Z,60
2017-12-14T08:16:46.968Z,60
2017-12-14T08:17:56.676Z,60
2017-12-14T08:19:06.626Z,60
2017-12-14T08:20:15.795Z,60
2017-12-14T08:21:25.766Z,60
2017-12-14T08:22:35.211Z,60
2017-12-14T08:23:45.171Z,60
2017-12-14T08:24:54.863Z,60
2017-12-14T08:26:04.592Z,65
2017-12-14T08:27:14.331Z,65
2017-12-14T08:28:24.086Z,70
2017-12-14T08:29:33.793Z,65
2017-12-14T08:30:43.233Z,70
2017-12-14T08:31:52.928Z,70
2017-12-14T08:33:02.384Z,70
2017-12-14T08:34:11.879Z,75
2017-12-14T08:35:21.324Z,75
2017-12-14T08:36:31.308Z,75
2017-12-14T08:37:41.275Z,70
2017-12-14T08:38:51.262Z,70
2017-12-14T08:40:00.744Z,70
2017-12-14T08:41:10.705Z,70
2017-12-14T08:42:20.889Z,70
2017-12-14T08:43:30.602Z,70
2017-12-14T08:44:40.556Z,70
2017-12-14T08:45:50.271Z,70
2017-12-14T08:46:59.722Z,70
2017-12-14T08:48:09.694Z,70
2017-12-14T08:49:19.132Z,70
2017-12-14T08:50:28.834Z,70
2017-12-14T08:51:39.142Z,70
2017-12-14T08:52:49.151Z,70
2017-12-14T08:53:58.607Z,70
2017-12-14T08:55:08.566Z,70
2017-12-14T08:56:18.291Z,70
2017-12-14T08:57:27.736Z,70
2017-12-14T08:58:37.459Z,75
2017-12-14T08:59:47.162Z,75
2017-12-14T09:00:56.615Z,75
2017-12-14T09:02:06.378Z,80
2017-12-14T09:03:16.330Z,80
2017-12-14T09:04:25.759Z,85
2017-12-14T09:05:35.743Z,85
2017-12-14T09:06:45.933Z,90
2017-12-14T09:07:55.910Z,90
2017-12-14T09:09:05.352Z,95
2017-12-14T09:10:15.310Z,95
2017-12-14T09:11:25.020Z,95
2017-12-14T09:12:34.711Z,100
2017-12-14T09:13:44.403Z,100
2017-12-14T09:14:54.442Z,100
2017-12-14T09:16:04.143Z,105
2017-12-14T09:17:13.844Z,105
2017-12-14T09:18:23.530Z,105
2017-12-14T09:19:33.501Z,105
2017-12-14T09:20:42.928Z,105
2017-12-14T09:21:52.115Z,105
2017-12-14T09:23:02.066Z,105
2017-12-14T09:24:11.764Z,100
2017-12-14T09:25:21.727Z,100
2017-12-14T09:26:31.704Z,95
2017-12-14T09:27:41.680Z,95
2017-12-14T09:28:51.391Z,95
2017-12-14T09:30:01.096Z,90
2017-12-14T09:31:11.053Z,90
2017-12-14T09:32:20.822Z,90
2017-12-14T09:33:30.520Z,90
2017-12-14T09:34:40.236Z,90
2017-12-14T09:35:49.926Z,90
2017-12-14T09:36:59.875Z,95
2017-12-14T09:38:09.836Z,100
2017-12-14T09:39:19.530Z,100
2017-12-14T09:40:29.505Z,105
2017-12-14T09:41:39.208Z,105
2017-12-14T09:42:49.162Z,105
2017-12-14T09:43:59.120Z,105
2017-12-14T09:45:08.813Z,105
2017-12-14T09:46:18.526Z,110
2017-12-14T09:47:28.224Z,110
2017-12-14T09:48:38.175Z,110
2017-12-14T09:49:48.169Z,115
2017-12-14T09:50:58.121Z,120
2017-12-14T09:52:07.828Z,125
2017-12-14T09:53:17.550Z,130
2017-12-14T09:54:27.514Z,135
2017-12-14T09:55:37.219Z,140
2017-12-14T09:56:46.940Z,140
2017-12-14T09:57:56.408Z,145
2017-12-14T09:59:06.413Z,150
2017-12-14T10:00:16.108Z,150
2017-12-14T10:01:25.823Z,150
2017-12-14T10:02:35.790Z,150
2017-12-14T10:03:45.514Z,150
2017-12-14T10:04:55.202Z,150
2017-12-14T10:06:04.895Z,155
2017-12-14T10:07:14.588Z,160
2017-12-14T10:08:24.782Z,160
2017-12-14T10:09:34.245Z,155
2017-12-14T10:10:43.978Z,155
2017-12-14T10:11:53.509Z,150
2017-12-14T10:13:03.506Z,145
2017-12-14T10:14:13.217Z,145
2017-12-14T10:15:22.925Z,140
2017-12-14T10:16:32.633Z,140
2017-12-14T10:17:42.570Z,140
2017-12-14T10:18:52.013Z,140
2017-12-14T10:20:01.191Z,145
2017-12-14T10:21:11.149Z,145
2017-12-14T10:22:20.861Z,140
2017-12-14T10:23:30.298Z,140
2017-12-14T10:24:40.249Z,140
2017-12-14T10:25:49.954Z,145
2017-12-14T10:26:59.636Z,155
2017-12-14T10:28:09.326Z,165
2017-12-14T10:29:18.503Z,180
2017-12-14T10:30:28.460Z,195
2017-12-14T10:31:38.431Z,205
2017-12-14T10:32:48.124Z,215
2017-12-14T10:33:58.012Z,220
2017-12-14T10:35:07.981Z,230
2017-12-14T10:36:17.682Z,235
2017-12-14T10:37:27.385Z,230
2017-12-14T10:38:36.603Z,210
2017-12-14T10:39:46.369Z,210
2017-12-14T10:40:56.328Z,220
2017-12-14T10:42:06.352Z,230
2017-12-14T10:43:16.052Z,240
2017-12-14T10:44:26.221Z,265
2017-12-14T10:45:35.910Z,295
2017-12-14T10:46:45.754Z,360
2017-12-14T10:47:55.749Z,395
2017-12-14T10:49:05.343Z,370
2017-12-14T10:50:15.198Z,325
2017-12-14T10:51:24.931Z,315
2017-12-14T10:52:34.888Z,335
2017-12-14T10:53:44.094Z,505
2017-12-14T10:54:53.789Z,455
2017-12-14T10:56:03.227Z,540
2017-12-14T10:57:12.936Z,435
2017-12-14T10:58:22.985Z,415
2017-12-14T10:59:32.971Z,370
2017-12-14T11:00:42.800Z,360
2017-12-14T11:01:52.803Z,395
2017-12-14T11:03:02.529Z,465
2017-12-14T11:04:12.511Z,425
2017-12-14T11:05:22.293Z,440
2017-12-14T11:06:32.070Z,550
2017-12-14T11:07:42.081Z,485
2017-12-14T11:08:52.094Z,455
2017-12-14T11:10:01.786Z,535
2017-12-14T11:11:11.232Z,530
2017-12-14T11:12:20.936Z,635
2017-12-14T11:13:30.950Z,395
2017-12-14T11:14:40.659Z,350
2017-12-14T11:15:50.615Z,290
2017-12-14T11:17:00.571Z,290
2017-12-14T11:18:10.252Z,210
2017-12-14T11:19:19.676Z,220
2017-12-14T11:20:29.391Z,260
2017-12-14T11:21:39.355Z,220
2017-12-14T11:22:49.062Z,200
2017-12-14T11:23:59.042Z,190
2017-12-14T11:25:08.737Z,220
2017-12-14T11:26:18.445Z,225
2017-12-14T11:27:28.403Z,210
2017-12-14T11:28:38.365Z,215
2017-12-14T11:29:47.908Z,210
2017-12-14T11:30:57.595Z,210
2017-12-14T11:32:07.558Z,140
2017-12-14T11:33:17.532Z,125
2017-12-14T11:34:27.240Z,125
2017-12-14T11:35:36.921Z,145
2017-12-14T11:36:46.890Z,190
2017-12-14T11:37:56.845Z,220
2017-12-14T11:39:06.794Z,505
2017-12-14T11:40:16.736Z,325
2017-12-14T11:41:26.689Z,445
2017-12-14T11:42:36.655Z,515
2017-12-14T11:43:46.147Z,485
2017-12-14T11:44:55.845Z,445
2017-12-14T11:46:05.557Z,380
2017-12-14T11:47:15.288Z,330
2017-12-14T11:48:25.244Z,315
2017-12-14T11:49:34.941Z,290
2017-12-14T11:50:44.635Z,285
2017-12-14T11:51:54.598Z,270
2017-12-14T11:53:04.537Z,240
2017-12-14T11:54:14.494Z,215
2017-12-14T11:55:24.183Z,230
2017-12-14T11:56:34.150Z,245
2017-12-14T11:57:43.594Z,270
2017-12-14T11:58:52.781Z,235
2017-12-14T12:00:02.468Z,210
2017-12-14T12:01:12.155Z,225
2017-12-14T12:02:21.871Z,235
2017-12-14T12:03:31.589Z,270
2017-12-14T12:04:41.027Z,265
2017-12-14T12:05:50.727Z,240
2017-12-14T12:07:00.416Z,245
2017-12-14T12:08:10.106Z,200
2017-12-14T12:09:20.059Z,185
2017-12-14T12:10:30.382Z,160
2017-12-14T12:11:39.610Z,130
2017-12-14T12:12:49.044Z,125
2017-12-14T12:13:58.735Z,130
2017-12-14T12:15:08.170Z,135
2017-12-14T12:16:18.153Z,145
2017-12-14T12:17:27.668Z,190
2017-12-14T12:18:37.385Z,175
2017-12-14T12:19:47.093Z,190
2017-12-14T12:20:56.788Z,230
2017-12-14T12:22:06.784Z,220
2017-12-14T12:23:16.225Z,240
2017-12-14T12:24:26.183Z,255
2017-12-14T12:25:35.874Z,245
2017-12-14T12:26:45.852Z,215
2017-12-14T12:27:55.282Z,255
2017-12-14T12:29:04.976Z,280
2017-12-14T12:30:14.923Z,245
2017-12-14T12:31:24.894Z,190
2017-12-14T12:32:34.586Z,140
2017-12-14T12:33:44.279Z,145
2017-12-14T12:34:53.707Z,125
2017-12-14T12:36:03.408Z,95
2017-12-14T12:37:13.122Z,90
2017-12-14T12:38:22.824Z,80
2017-12-14T12:39:32.531Z,70
2017-12-14T12:40:42.573Z,70
2017-12-14T12:41:52.369Z,70
2017-12-14T12:43:02.318Z,70
2017-12-14T12:44:12.006Z,70
2017-12-14T12:45:21.962Z,70
2017-12-14T12:46:31.650Z,85
2017-12-14T12:47:41.615Z,115
2017-12-14T12:48:51.313Z,165
2017-12-14T12:50:01.006Z,165
2017-12-14T12:51:10.438Z,145
2017-12-14T12:52:20.399Z,140
2017-12-14T12:53:29.835Z,135
2017-12-14T12:54:39.822Z,90
2017-12-14T12:55:49.276Z,90
2017-12-14T12:56:59.307Z,75
2017-12-14T12:58:08.974Z,75
2017-12-14T12:59:18.680Z,95
2017-12-14T13:00:28.646Z,85
2017-12-14T13:01:38.603Z,95
2017-12-14T13:02:48.552Z,80
2017-12-14T13:03:58.504Z,80
2017-12-14T13:05:08.578Z,85
2017-12-14T13:06:18.524Z,75
2017-12-14T13:07:28.226Z,70
2017-12-14T13:08:37.942Z,65
2017-12-14T13:09:47.647Z,70
2017-12-14T13:10:57.357Z,70
2017-12-14T13:12:07.050Z,65
2017-12-14T13:13:16.997Z,60
2017-12-14T13:14:26.434Z,45
2017-12-14T13:15:36.162Z,35
2017-12-14T13:16:46.103Z,25
2017-12-14T13:17:56.126Z,25
2017-12-14T13:19:06.085Z,30
2017-12-14T13:20:15.786Z,40
2017-12-14T13:21:25.479Z,35
2017-12-14T13:22:35.174Z,30
2017-12-14T13:23:44.878Z,25
2017-12-14T13:24:54.842Z,30
2017-12-14T13:26:04.555Z,30
2017-12-14T13:27:14.507Z,45
2017-12-14T13:28:24.321Z,50
2017-12-14T13:29:34.274Z,45
2017-12-14T13:30:43.987Z,50
2017-12-14T13:31:53.931Z,50
2017-12-14T13:33:03.886Z,55
2017-12-14T13:34:13.903Z,60
2017-12-14T13:35:23.596Z,60
2017-12-14T13:36:33.536Z,60
2017-12-14T13:37:43.498Z,70
2017-12-14T13:38:53.184Z,90
2017-12-14T13:40:02.885Z,90
2017-12-14T13:41:12.600Z,70
2017-12-14T13:42:22.558Z,65
2017-12-14T13:43:32.550Z,60
2017-12-14T13:44:41.972Z,80
2017-12-14T13:45:51.148Z,140
2017-12-14T13:47:01.108Z,145
2017-12-14T13:48:10.545Z,175
2017-12-14T13:49:20.537Z,225
2017-12-14T13:50:30.493Z,195
2017-12-14T13:51:39.960Z,165
2017-12-14T13:52:49.715Z,140
2017-12-14T13:53:59.398Z,130
2017-12-14T13:55:09.424Z,135
2017-12-14T13:56:19.462Z,100
2017-12-14T13:57:29.154Z,75
2017-12-14T13:58:38.596Z,70
2017-12-14T13:59:48.548Z,75
2017-12-14T14:00:58.333Z,80
2017-12-14T14:02:08.017Z,80
2017-12-14T14:03:17.989Z,80
2017-12-14T14:04:27.691Z,70
2017-12-14T14:05:37.664Z,60
2017-12-14T14:06:47.371Z,50
2017-12-14T14:07:57.342Z,45
2017-12-14T14:09:06.783Z,40
2017-12-14T14:10:16.205Z,35
2017-12-14T14:11:25.894Z,25
2017-12-14T14:12:35.596Z,20
2017-12-14T14:13:45.311Z,20
2017-12-14T14:14:55.279Z,15
2017-12-14T14:16:04.734Z,15
2017-12-14T14:17:14.431Z,25
2017-12-14T14:18:24.377Z,30
2017-12-14T14:19:34.330Z,35
2017-12-14T14:20:44.017Z,35
2017-12-14T14:21:53.701Z,35
2017-12-14T14:23:03.660Z,35
2017-12-14T14:24:13.337Z,35
2017-12-14T14:25:23.306Z,30
2017-12-14T14:26:32.992Z,30
2017-12-14T14:27:42.440Z,30
2017-12-14T14:28:52.196Z,30
2017-12-14T14:30:02.155Z,25
2017-12-14T14:31:11.865Z,25
2017-12-14T14:32:21.563Z,25
2017-12-14T14:33:31.508Z,25
2017-12-14T14:34:41.212Z,25
2017-12-14T14:35:50.928Z,30
2017-12-14T14:37:00.612Z,30
2017-12-14T14:38:10.045Z,35
2017-12-14T14:39:19.750Z,35
2017-12-14T14:40:29.290Z,30
2017-12-14T14:41:39.222Z,30
2017-12-14T14:42:48.737Z,25
2017-12-14T14:43:58.716Z,25
2017-12-14T14:45:08.427Z,25
2017-12-14T14:46:17.865Z,20
2017-12-14T14:47:27.829Z,20
2017-12-14T14:48:37.800Z,20
2017-12-14T14:49:47.228Z,20
2017-12-14T14:50:56.666Z,15
2017-12-14T14:52:06.624Z,15
2017-12-14T14:53:16.319Z,10
2017-12-14T14:54:25.752Z,10
2017-12-14T14:55:35.449Z,10
2017-12-14T14:56:45.390Z,5
2017-12-14T14:57:55.341Z,5
2017-12-14T14:59:05.042Z,5
2017-12-14T15:00:14.475Z,5
2017-12-14T15:01:24.175Z,5
2017-12-14T15:02:33.621Z,5
2017-12-14T15:03:43.377Z,5
2017-12-14T15:04:53.077Z,0
2017-12-14T15:06:03.037Z,0
2017-12-14T15:07:12.470Z,0
2017-12-14T15:08:22.415Z,0
2017-12-14T15:09:32.111Z,0
2017-12-14T15:10:42.087Z,0
2017-12-14T15:11:52.052Z,0
2017-12-14T15:13:02.001Z,0
2017-12-14T15:14:11.950Z,0
2017-12-14T15:15:21.637Z,0
2017-12-14T15:16:31.066Z,0
2017-12-14T15:17:40.783Z,0
2017-12-14T15:18:50.514Z,0
2017-12-14T15:20:00.467Z,0
2017-12-14T15:21:10.161Z,0
2017-12-14T15:22:19.848Z,0
2017-12-14T15:23:29.280Z,0
2017-12-14T15:24:38.726Z,0
2017-12-14T15:25:48.670Z,0
2017-12-14T15:26:58.613Z,0
2017-12-14T15:28:08.576Z,0
2017-12-14T15:29:18.533Z,0
2017-12-14T15:30:28.477Z,0
2017-12-14T15:31:38.175Z,0
2017-12-14T15:32:48.138Z,0
2017-12-14T15:33:58.089Z,0
2017-12-14T15:35:08.044Z,0
2017-12-14T15:36:17.995Z,0
2017-12-14T15:37:27.969Z,0
2017-12-14T15:38:37.920Z,0
2017-12-14T15:39:47.363Z,0
2017-12-14T15:40:57.045Z,0
2017-12-14T15:42:06.753Z,0
2017-12-14T15:43:16.456Z,0
2017-12-14T15:44:26.497Z,0
2017-12-14T15:45:36.192Z,0
2017-12-14T15:46:46.137Z,0
2017-12-14T15:47:55.952Z,0
2017-12-14T15:49:05.984Z,0
2017-12-14T15:50:15.427Z,0
2017-12-14T15:51:25.363Z,0
2017-12-14T15:52:35.058Z,0
2017-12-14T15:53:45.006Z,0
2017-12-14T15:54:54.948Z,0
2017-12-14T15:56:04.634Z,0
2017-12-14T15:57:14.322Z,0
2017-12-14T15:58:24.001Z,0
2017-12-14T15:59:33.956Z,0
2017-12-14T16:00:43.663Z,0
2017-12-14T16:01:53.354Z,0
2017-12-14T16:03:03.304Z,0
2017-12-14T16:04:13.252Z,0
2017-12-14T16:05:22.947Z,0
2017-12-14T16:06:32.896Z,0
2017-12-14T16:07:42.335Z,0
2017-12-14T16:08:52.035Z,0
2017-12-14T16:10:01.989Z,0
2017-12-14T16:11:11.427Z,0
2017-12-14T16:12:20.610Z,0
2017-12-14T16:13:30.055Z,0
2017-12-14T16:14:40.043Z,0
2017-12-14T16:15:49.498Z,0
2017-12-14T16:16:58.929Z,0
2017-12-14T16:18:08.633Z,0
2017-12-14T16:19:18.580Z,0
2017-12-14T16:20:28.528Z,0
2017-12-14T16:21:38.219Z,0
2017-12-14T16:22:48.186Z,0
2017-12-14T16:23:58.130Z,0
2017-12-14T16:25:08.079Z,0
2017-12-14T16:26:18.031Z,0
2017-12-14T16:27:27.484Z,0
2017-12-14T16:28:37.179Z,0
2017-12-14T16:29:46.867Z,0
2017-12-14T16:30:56.557Z,0
2017-12-14T16:32:06.508Z,0
2017-12-14T16:33:16.442Z,0
2017-12-14T16:34:26.383Z,0
2017-12-14T16:35:36.088Z,0
2017-12-14T16:36:45.778Z,0
2017-12-14T16:37:55.474Z,0
2017-12-14T16:39:05.170Z,0
2017-12-14T16:40:14.870Z,0
2017-12-14T16:41:24.579Z,0
2017-12-14T16:42:34.268Z,0
2017-12-14T16:43:43.960Z,0
2017-12-14T16:44:53.649Z,0
2017-12-14T16:46:03.345Z,0
2017-12-14T16:47:12.768Z,0
2017-12-14T16:48:22.475Z,0
2017-12-14T16:49:32.448Z,0
2017-12-14T16:50:42.146Z,0
2017-12-14T16:51:52.112Z,0
2017-12-14T16:53:01.807Z,0